Time,TemperatureF,DewpointF,PressureIn,WindDirection,WindDirectionDegrees,WindSpeedMPH,WindSpeedGustMPH,Humidity,HourlyPrecipIn,Conditions,Clouds,dailyrainin,SoftwareType,DateUTC
2013-09-29 00:01:00,74.3,73.1,29.95,ENE,71,1.9,3.5,96,0.20,RA,,0.00,WeatherDisplay:10.37,2013-09-29 04:01:00,
2013-09-29 00:06:00,74.2,73.0,29.95,NE,39,3.2,4.6,96,0.22,RA,,0.02,WeatherDisplay:10.37,2013-09-29 04:06:00,
2013-09-29 00:11:00,74.2,73.0,29.95,NNE,24,3.0,5.8,96,0.24,RA,,0.05,WeatherDisplay:10.37,2013-09-29 04:11:00,
2013-09-29 00:16:00,74.3,73.1,29.95,NNE,18,3.2,5.8,96,0.26,RA,,0.06,WeatherDisplay:10.37,2013-09-29 04:16:00,
2013-09-29 00:21:00,74.2,73.0,29.95,NNE,30,1.6,3.5,96,0.27,RA,,0.07,WeatherDisplay:10.37,2013-09-29 04:21:00,
2013-09-29 00:26:00,74.0,72.8,29.95,NNE,14,2.4,5.8,96,0.29,RA,,0.09,WeatherDisplay:10.37,2013-09-29 04:26:00,
2013-09-29 00:31:00,73.8,72.3,29.95,North,5,0.8,2.3,95,0.30,RA,,0.10,WeatherDisplay:10.37,2013-09-29 04:31:00,
2013-09-29 00:36:00,73.8,72.6,29.94,North,5,1.0,2.3,96,0.29,RA,,0.10,WeatherDisplay:10.37,2013-09-29 04:36:00,
2013-09-29 00:41:00,73.7,72.5,29.94,North,9,0.9,2.3,96,0.29,RA,,0.11,WeatherDisplay:10.37,2013-09-29 04:41:00,
2013-09-29 00:46:00,73.5,72.0,29.94,NNE,28,1.0,2.3,95,0.27,RA,,0.11,WeatherDisplay:10.37,2013-09-29 04:46:00,
2013-09-29 00:51:00,73.5,72.0,29.94,NNE,28,1.1,2.3,95,0.25,,,0.11,WeatherDisplay:10.37,2013-09-29 04:51:00,
2013-09-29 00:56:00,73.6,72.4,29.93,NNE,19,1.4,2.3,96,0.16,CLR,,0.11,WeatherDisplay:10.37,2013-09-29 04:56:00,
2013-09-29 01:01:00,73.5,72.0,29.93,NNE,16,0.6,1.2,95,0.11,CLR,,0.11,WeatherDisplay:10.37,2013-09-29 05:01:00,
2013-09-29 01:06:00,73.6,72.4,29.94,NNE,16,0.1,1.2,96,0.09,CLR,,0.11,WeatherDisplay:10.37,2013-09-29 05:06:00,
2013-09-29 01:11:00,73.5,72.3,29.93,NNE,16,1.4,1.4,96,0.07,CLR,,0.11,WeatherDisplay:10.37,2013-09-29 05:11:00,
2013-09-29 01:16:00,73.6,72.4,29.93,NNE,16,1.0,2.3,96,0.05,CLR,,0.11,WeatherDisplay:10.37,2013-09-29 05:16:00,
2013-09-29 01:21:00,73.9,72.7,29.92,NNE,16,1.0,2.3,96,0.04,CLR,,0.12,WeatherDisplay:10.37,2013-09-29 05:21:00,
2013-09-29 01:26:00,73.7,72.5,29.93,NNE,16,1.7,2.3,96,0.03,RA,,0.12,WeatherDisplay:10.37,2013-09-29 05:26:00,
2013-09-29 01:31:00,73.7,72.5,29.92,NNE,19,0.0,1.2,96,0.02,RA,,0.12,WeatherDisplay:10.37,2013-09-29 05:31:00,
2013-09-29 01:36:00,73.7,72.8,29.92,NNE,19,0.0,0.0,97,0.02,CLR,,0.12,WeatherDisplay:10.37,2013-09-29 05:36:00,
2013-09-29 01:41:00,73.6,72.7,29.92,NNE,19,0.0,0.0,97,0.01,CLR,,0.12,WeatherDisplay:10.37,2013-09-29 05:41:00,
2013-09-29 02:13:00,73.7,72.8,29.92,NNE,19,0.3,0.0,97,0.01,RA,,0.12,WeatherDisplay:10.37,2013-09-29 06:13:00,
2013-09-29 02:18:00,73.8,72.9,29.92,NE,55,2.4,3.5,97,0.01,RA,,0.12,WeatherDisplay:10.37,2013-09-29 06:18:00,
2013-09-29 02:23:00,73.9,72.7,29.92,ENE,69,2.0,3.5,96,0.01,CLR,,0.12,WeatherDisplay:10.37,2013-09-29 06:23:00,
2013-09-29 02:28:00,74.1,72.9,29.92,ENE,69,0.0,1.2,96,0.01,CLR,,0.12,WeatherDisplay:10.37,2013-09-29 06:28:00,
2013-09-29 02:33:00,74.0,72.8,29.91,ENE,69,0.0,1.2,96,0.01,CLR,,0.12,WeatherDisplay:10.37,2013-09-29 06:33:00,
2013-09-29 02:38:00,74.0,72.5,29.91,ENE,69,0.0,0.0,95,0.01,CLR,,0.12,WeatherDisplay:10.37,2013-09-29 06:38:00,
2013-09-29 02:43:00,74.0,72.5,29.91,ENE,69,0.1,0.0,95,0.01,CLR,,0.12,WeatherDisplay:10.37,2013-09-29 06:43:00,
2013-09-29 02:48:00,73.9,72.4,29.90,ENE,69,0.1,1.2,95,0.01,CLR,,0.12,WeatherDisplay:10.37,2013-09-29 06:48:00,
2013-09-29 02:53:00,73.9,72.4,29.90,ENE,69,0.0,0.0,95,0.00,CLR,,0.12,WeatherDisplay:10.37,2013-09-29 06:53:00,
2013-09-29 02:58:00,73.8,72.6,29.90,ENE,69,0.0,0.0,96,0.00,CLR,,0.12,WeatherDisplay:10.37,2013-09-29 06:58:00,
2013-09-29 03:03:00,74.0,72.8,29.90,ENE,69,0.0,0.0,96,0.00,CLR,,0.12,WeatherDisplay:10.37,2013-09-29 07:03:00,
2013-09-29 03:08:00,73.9,72.7,29.90,ENE,69,0.0,0.0,96,0.00,CLR,,0.12,WeatherDisplay:10.37,2013-09-29 07:08:00,
2013-09-29 03:13:00,74.0,72.8,29.90,ENE,69,0.0,0.0,96,0.00,CLR,,0.12,WeatherDisplay:10.37,2013-09-29 07:13:00,
2013-09-29 03:19:00,74.3,73.4,29.90,ENE,69,0.0,0.0,97,0.00,CLR,,0.12,WeatherDisplay:10.37,2013-09-29 07:19:00,
2013-09-29 03:24:00,74.3,73.1,29.90,ENE,69,0.0,0.0,96,0.00,CLR,,0.12,WeatherDisplay:10.37,2013-09-29 07:24:00,
2013-09-29 03:29:00,74.1,72.9,29.90,ENE,69,0.0,0.0,96,0.00,CLR,,0.12,WeatherDisplay:10.37,2013-09-29 07:29:00,
2013-09-29 03:34:00,73.9,72.7,29.90,ENE,69,0.0,0.0,96,0.00,CLR,,0.12,WeatherDisplay:10.37,2013-09-29 07:34:00,
2013-09-29 03:39:00,73.8,72.9,29.90,ENE,69,0.0,0.0,97,0.00,CLR,,0.12,WeatherDisplay:10.37,2013-09-29 07:39:00,
2013-09-29 03:44:00,73.8,72.9,29.90,ENE,69,0.0,0.0,97,0.00,CLR,,0.12,WeatherDisplay:10.37,2013-09-29 07:44:00,
2013-09-29 03:49:00,73.8,72.9,29.90,ENE,69,0.0,0.0,97,0.00,CLR,,0.12,WeatherDisplay:10.37,2013-09-29 07:49:00,
2013-09-29 03:54:00,73.8,72.9,29.90,ENE,69,0.0,0.0,97,0.00,CLR,,0.12,WeatherDisplay:10.37,2013-09-29 07:54:00,
2013-09-29 03:59:00,73.8,72.9,29.90,ENE,69,0.0,0.0,97,0.00,CLR,,0.12,WeatherDisplay:10.37,2013-09-29 07:59:00,
2013-09-29 04:04:00,73.7,72.8,29.90,ENE,69,0.0,0.0,97,0.00,CLR,,0.12,WeatherDisplay:10.37,2013-09-29 08:04:00,
2013-09-29 04:09:00,73.7,72.8,29.90,ENE,69,0.1,0.0,97,0.00,CLR,,0.12,WeatherDisplay:10.37,2013-09-29 08:09:00,
2013-09-29 04:14:00,73.7,72.8,29.90,ENE,69,0.0,2.3,97,0.00,CLR,,0.12,WeatherDisplay:10.37,2013-09-29 08:14:00,
2013-09-29 04:19:00,73.6,72.7,29.90,ENE,69,1.3,3.5,97,0.00,CLR,,0.12,WeatherDisplay:10.37,2013-09-29 08:19:00,
2013-09-29 04:24:00,73.6,72.7,29.90,ENE,69,0.0,0.0,97,0.00,CLR,,0.12,WeatherDisplay:10.37,2013-09-29 08:24:00,
2013-09-29 04:29:00,73.5,72.6,29.91,ENE,69,0.0,0.0,97,0.00,CLR,,0.12,WeatherDisplay:10.37,2013-09-29 08:29:00,
2013-09-29 04:34:00,73.8,72.9,29.91,ENE,69,0.1,1.2,97,0.00,CLR,,0.12,WeatherDisplay:10.37,2013-09-29 08:34:00,
2013-09-29 04:39:00,73.7,72.8,29.90,ENE,69,0.0,0.0,97,0.00,CLR,,0.12,WeatherDisplay:10.37,2013-09-29 08:39:00,
2013-09-29 04:44:00,74.0,73.1,29.90,ENE,69,0.0,0.0,97,0.00,CLR,,0.12,WeatherDisplay:10.37,2013-09-29 08:44:00,
2013-09-29 04:49:00,74.0,73.1,29.91,ENE,69,0.0,0.0,97,0.00,CLR,,0.12,WeatherDisplay:10.37,2013-09-29 08:49:00,
2013-09-29 04:54:00,74.1,73.2,29.90,ENE,69,0.2,1.2,97,0.00,CLR,,0.12,WeatherDisplay:10.37,2013-09-29 08:54:00,
2013-09-29 04:59:00,74.0,73.1,29.90,ENE,69,0.0,0.0,97,0.00,CLR,,0.12,WeatherDisplay:10.37,2013-09-29 08:59:00,
2013-09-29 05:04:00,73.7,72.8,29.90,ENE,69,1.4,0.0,97,0.00,CLR,,0.12,WeatherDisplay:10.37,2013-09-29 09:04:00,
2013-09-29 05:10:00,73.6,72.7,29.90,ENE,69,0.7,1.2,97,0.00,CLR,,0.12,WeatherDisplay:10.37,2013-09-29 09:10:00,
2013-09-29 05:15:00,73.5,72.6,29.90,ENE,69,0.0,0.0,97,0.00,CLR,,0.12,WeatherDisplay:10.37,2013-09-29 09:15:00,
2013-09-29 05:20:00,73.3,72.4,29.90,ENE,69,0.1,0.0,97,0.00,CLR,,0.12,WeatherDisplay:10.37,2013-09-29 09:20:00,
2013-09-29 05:25:00,73.3,72.4,29.91,ENE,69,0.0,1.2,97,0.00,CLR,,0.12,WeatherDisplay:10.37,2013-09-29 09:25:00,
2013-09-29 05:30:00,73.4,72.5,29.91,ENE,69,0.4,1.2,97,0.00,CLR,,0.12,WeatherDisplay:10.37,2013-09-29 09:30:00,
2013-09-29 05:35:00,73.4,72.5,29.91,ENE,69,0.0,0.0,97,0.00,CLR,,0.12,WeatherDisplay:10.37,2013-09-29 09:35:00,
2013-09-29 05:40:00,73.4,72.5,29.91,ENE,69,0.0,0.0,97,0.00,CLR,,0.12,WeatherDisplay:10.37,2013-09-29 09:40:00,
2013-09-29 05:45:00,73.5,72.6,29.91,ENE,69,0.0,0.0,97,0.00,CLR,,0.12,WeatherDisplay:10.37,2013-09-29 09:45:00,
2013-09-29 05:50:00,73.5,72.6,29.91,ENE,69,0.4,1.2,97,0.00,CLR,,0.12,WeatherDisplay:10.37,2013-09-29 09:50:00,
2013-09-29 05:55:00,73.5,72.6,29.91,ENE,69,0.3,1.2,97,0.00,CLR,,0.12,WeatherDisplay:10.37,2013-09-29 09:55:00,
2013-09-29 06:00:00,73.6,72.7,29.91,ENE,69,0.0,0.0,97,0.00,CLR,,0.12,WeatherDisplay:10.37,2013-09-29 10:00:00,
2013-09-29 06:05:00,73.7,72.8,29.91,ENE,69,0.5,3.5,97,0.00,CLR,,0.12,WeatherDisplay:10.37,2013-09-29 10:05:00,
2013-09-29 06:10:00,73.7,72.8,29.92,ENE,69,0.1,1.2,97,0.00,CLR,,0.12,WeatherDisplay:10.37,2013-09-29 10:10:00,
2013-09-29 06:15:00,73.8,72.9,29.91,ENE,69,0.4,1.2,97,0.00,CLR,,0.12,WeatherDisplay:10.37,2013-09-29 10:15:00,
2013-09-29 06:20:00,73.8,72.9,29.92,ENE,69,1.7,2.3,97,0.00,CLR,,0.12,WeatherDisplay:10.37,2013-09-29 10:20:00,
2013-09-29 06:25:00,73.9,73.0,29.92,ENE,69,0.1,1.2,97,0.00,CLR,,0.12,WeatherDisplay:10.37,2013-09-29 10:25:00,
2013-09-29 06:30:00,74.0,73.1,29.92,ENE,69,0.5,1.2,97,0.00,CLR,,0.12,WeatherDisplay:10.37,2013-09-29 10:30:00,
2013-09-29 06:35:00,74.1,73.2,29.92,ENE,69,0.5,1.2,97,0.00,CLR,,0.12,WeatherDisplay:10.37,2013-09-29 10:35:00,
2013-09-29 06:40:00,74.0,73.1,29.92,ENE,69,1.2,3.5,97,0.00,CLR,,0.12,WeatherDisplay:10.37,2013-09-29 10:40:00,
2013-09-29 06:45:00,74.0,73.1,29.92,ENE,69,0.3,1.2,97,0.00,CLR,,0.12,WeatherDisplay:10.37,2013-09-29 10:45:00,
2013-09-29 06:50:00,74.1,73.2,29.92,ENE,69,0.9,1.2,97,0.00,CLR,,0.12,WeatherDisplay:10.37,2013-09-29 10:50:00,
2013-09-29 06:55:00,74.1,73.2,29.92,ENE,69,0.0,0.0,97,0.00,CLR,,0.12,WeatherDisplay:10.37,2013-09-29 10:55:00,
2013-09-29 07:00:00,74.1,73.2,29.92,ENE,69,0.7,2.3,97,0.00,CLR,,0.12,WeatherDisplay:10.37,2013-09-29 11:00:00,
2013-09-29 07:05:00,74.0,73.1,29.92,ENE,69,0.8,2.3,97,0.00,CLR,,0.12,WeatherDisplay:10.37,2013-09-29 11:05:00,
2013-09-29 07:10:00,74.0,73.1,29.92,ENE,69,1.0,3.0,97,0.00,CLR,,0.12,WeatherDisplay:10.37,2013-09-29 11:10:00,
2013-09-29 07:15:00,74.0,73.1,29.93,ENE,69,0.0,0.0,97,0.00,CLR,,0.12,WeatherDisplay:10.37,2013-09-29 11:15:00,
2013-09-29 07:20:00,73.9,73.0,29.93,ENE,69,0.9,2.3,97,0.00,CLR,,0.12,WeatherDisplay:10.37,2013-09-29 11:20:00,
2013-09-29 07:25:00,73.9,73.0,29.93,ENE,69,0.1,1.2,97,0.00,CLR,,0.12,WeatherDisplay:10.37,2013-09-29 11:25:00,
2013-09-29 07:30:00,73.9,73.0,29.93,ENE,69,0.8,2.3,97,0.00,CLR,,0.12,WeatherDisplay:10.37,2013-09-29 11:30:00,
2013-09-29 07:35:00,73.9,73.0,29.93,ENE,69,0.0,0.0,97,0.00,CLR,,0.12,WeatherDisplay:10.37,2013-09-29 11:35:00,
2013-09-29 07:40:00,73.9,73.0,29.93,ENE,69,0.0,0.0,97,0.00,CLR,,0.12,WeatherDisplay:10.37,2013-09-29 11:40:00,
2013-09-29 07:45:00,73.9,73.0,29.93,ENE,69,0.0,1.2,97,0.00,CLR,,0.12,WeatherDisplay:10.37,2013-09-29 11:45:00,
2013-09-29 07:50:00,73.9,73.0,29.93,ENE,69,0.0,0.0,97,0.00,CLR,,0.12,WeatherDisplay:10.37,2013-09-29 11:50:00,
2013-09-29 07:55:00,73.9,73.0,29.93,ENE,69,0.0,0.0,97,0.00,CLR,,0.12,WeatherDisplay:10.37,2013-09-29 11:55:00,
2013-09-29 08:00:00,74.0,73.1,29.94,ENE,69,0.0,0.0,97,0.00,CLR,,0.12,WeatherDisplay:10.37,2013-09-29 12:00:00,
2013-09-29 08:05:00,74.0,73.1,29.94,ENE,69,0.0,0.0,97,0.00,CLR,,0.12,WeatherDisplay:10.37,2013-09-29 12:05:00,
2013-09-29 08:10:00,74.0,73.1,29.94,ENE,69,0.0,0.0,97,0.00,CLR,,0.12,WeatherDisplay:10.37,2013-09-29 12:10:00,
2013-09-29 08:15:00,74.3,73.4,29.94,ENE,69,0.4,1.2,97,0.00,CLR,,0.12,WeatherDisplay:10.37,2013-09-29 12:15:00,
2013-09-29 08:20:00,74.7,74.1,29.94,ENE,69,0.0,1.2,98,0.00,CLR,,0.12,WeatherDisplay:10.37,2013-09-29 12:20:00,
2013-09-29 08:25:00,75.2,74.6,29.94,ENE,69,0.2,1.2,98,0.00,CLR,,0.12,WeatherDisplay:10.37,2013-09-29 12:25:00,
2013-09-29 08:30:00,75.4,74.5,29.94,ENE,69,0.6,2.3,97,0.00,CLR,,0.12,WeatherDisplay:10.37,2013-09-29 12:30:00,
2013-09-29 08:35:00,75.5,74.3,29.94,ENE,69,1.7,3.5,96,0.00,CLR,,0.12,WeatherDisplay:10.37,2013-09-29 12:35:00,
2013-09-29 08:40:00,76.1,74.9,29.94,ENE,69,0.1,2.3,96,0.00,CLR,,0.12,WeatherDisplay:10.37,2013-09-29 12:40:00,
2013-09-29 08:45:00,76.6,75.1,29.94,ENE,69,0.2,1.2,95,0.00,CLR,,0.12,WeatherDisplay:10.37,2013-09-29 12:45:00,
2013-09-29 08:50:00,77.0,74.8,29.95,ENE,69,1.6,2.3,93,0.00,CLR,,0.12,WeatherDisplay:10.37,2013-09-29 12:50:00,
2013-09-29 08:55:00,77.3,74.8,29.95,ENE,69,0.1,1.2,92,0.00,CLR,,0.12,WeatherDisplay:10.37,2013-09-29 12:55:00,
2013-09-29 09:00:00,77.6,75.1,29.95,ENE,69,0.8,3.5,92,0.00,CLR,,0.12,WeatherDisplay:10.37,2013-09-29 13:00:00,
2013-09-29 09:05:00,78.0,75.2,29.95,ENE,69,1.4,4.6,91,0.00,CLR,,0.12,WeatherDisplay:10.37,2013-09-29 13:05:00,
2013-09-29 09:10:00,78.3,75.1,29.95,ENE,69,0.0,0.0,90,0.00,CLR,,0.12,WeatherDisplay:10.37,2013-09-29 13:10:00,
2013-09-29 09:15:00,78.7,74.8,29.95,ENE,69,1.9,2.3,88,0.00,CLR,,0.12,WeatherDisplay:10.37,2013-09-29 13:15:00,
2013-09-29 09:20:00,79.0,74.8,29.95,ENE,69,0.7,2.3,87,0.00,CLR,,0.12,WeatherDisplay:10.37,2013-09-29 13:20:00,
2013-09-29 09:25:00,79.4,74.8,29.95,ENE,69,1.0,3.5,86,0.00,CLR,,0.12,WeatherDisplay:10.37,2013-09-29 13:25:00,
2013-09-29 09:31:00,80.0,75.8,29.95,ENE,69,1.6,3.5,87,0.00,CLR,,0.12,WeatherDisplay:10.37,2013-09-29 13:31:00,
2013-09-29 09:36:00,80.1,75.2,29.95,ENE,69,0.6,1.2,85,0.00,CLR,,0.12,WeatherDisplay:10.37,2013-09-29 13:36:00,
2013-09-29 09:41:00,80.5,74.9,29.95,ENE,69,2.4,3.5,83,0.00,CLR,,0.12,WeatherDisplay:10.37,2013-09-29 13:41:00,
2013-09-29 09:46:00,80.7,74.7,29.95,ENE,69,2.3,3.5,82,0.00,CLR,,0.12,WeatherDisplay:10.37,2013-09-29 13:46:00,
2013-09-29 09:51:00,81.1,74.7,29.95,ENE,69,2.4,3.5,81,0.00,CLR,,0.12,WeatherDisplay:10.37,2013-09-29 13:51:00,
2013-09-29 09:56:00,81.4,74.6,29.95,ENE,69,2.1,3.5,80,0.00,CLR,,0.12,WeatherDisplay:10.37,2013-09-29 13:56:00,
2013-09-29 10:01:00,81.6,74.8,29.95,ENE,69,3.1,4.6,80,0.00,CLR,,0.12,WeatherDisplay:10.37,2013-09-29 14:01:00,
2013-09-29 10:06:00,81.7,73.4,29.95,NNE,30,3.2,4.6,76,0.00,CLR,,0.12,WeatherDisplay:10.37,2013-09-29 14:06:00,
2013-09-29 10:11:00,81.9,73.2,29.95,ENE,59,3.5,3.5,75,0.00,CLR,,0.12,WeatherDisplay:10.37,2013-09-29 14:11:00,
2013-09-29 10:16:00,82.0,73.7,29.95,North,350,2.3,5.8,76,0.00,CLR,,0.12,WeatherDisplay:10.37,2013-09-29 14:16:00,
2013-09-29 10:21:00,82.1,73.8,29.95,NNE,19,4.0,5.8,76,0.00,CLR,,0.12,WeatherDisplay:10.37,2013-09-29 14:21:00,
2013-09-29 10:26:00,82.4,74.1,29.95,NNE,22,3.6,3.6,76,0.00,CLR,,0.12,WeatherDisplay:10.37,2013-09-29 14:26:00,
2013-09-29 10:31:00,82.5,73.4,29.95,NE,55,5.7,5.8,74,0.00,CLR,,0.12,WeatherDisplay:10.37,2013-09-29 14:31:00,
2013-09-29 10:36:00,82.5,72.6,29.95,ENE,67,3.5,6.9,72,0.00,CLR,,0.12,WeatherDisplay:10.37,2013-09-29 14:36:00,
2013-09-29 10:41:00,82.8,72.8,29.96,ENE,69,0.8,2.3,72,0.00,CLR,,0.12,WeatherDisplay:10.37,2013-09-29 14:41:00,
2013-09-29 10:46:00,83.1,73.5,29.96,East,96,4.9,11.5,73,0.00,CLR,,0.12,WeatherDisplay:10.37,2013-09-29 14:46:00,
2013-09-29 10:51:00,83.1,72.3,29.96,NE,40,4.8,5.8,70,0.00,CLR,,0.12,WeatherDisplay:10.37,2013-09-29 14:51:00,
2013-09-29 10:56:00,83.2,72.4,29.96,East,96,3.6,6.9,70,0.00,CLR,,0.12,WeatherDisplay:10.37,2013-09-29 14:56:00,
2013-09-29 11:01:00,83.4,72.2,29.96,East,86,2.7,6.9,69,0.00,CLR,,0.12,WeatherDisplay:10.37,2013-09-29 15:01:00,
2013-09-29 11:06:00,83.6,71.9,29.95,NE,50,4.2,6.9,68,0.00,CLR,,0.12,WeatherDisplay:10.37,2013-09-29 15:06:00,
2013-09-29 11:11:00,83.9,72.6,29.95,NE,55,3.4,3.5,69,0.00,CLR,,0.12,WeatherDisplay:10.37,2013-09-29 15:11:00,
2013-09-29 11:16:00,83.9,72.2,29.95,ENE,61,2.0,4.6,68,0.00,CLR,,0.12,WeatherDisplay:10.37,2013-09-29 15:16:00,
2013-09-29 11:21:00,83.8,73.0,29.95,NE,40,2.4,4.6,70,0.00,CLR,,0.12,WeatherDisplay:10.37,2013-09-29 15:21:00,
2013-09-29 11:26:00,83.8,72.1,29.95,ENE,70,3.3,6.9,68,0.00,CLR,,0.12,WeatherDisplay:10.37,2013-09-29 15:26:00,
2013-09-29 11:31:00,83.9,72.6,29.95,ENE,74,0.9,1.2,69,0.00,CLR,,0.12,WeatherDisplay:10.37,2013-09-29 15:31:00,
2013-09-29 11:36:00,84.0,71.4,29.95,ENE,74,6.3,9.2,66,0.00,CLR,,0.12,WeatherDisplay:10.37,2013-09-29 15:36:00,
2013-09-29 11:41:00,83.9,71.3,29.95,NE,46,6.3,9.2,66,0.00,CLR,,0.12,WeatherDisplay:10.37,2013-09-29 15:41:00,
2013-09-29 11:46:00,83.8,71.7,29.95,NE,34,3.5,6.9,67,0.00,CLR,,0.12,WeatherDisplay:10.37,2013-09-29 15:46:00,
2013-09-29 11:51:00,83.7,71.6,29.95,ENE,58,3.2,4.6,67,0.00,CLR,,0.12,WeatherDisplay:10.37,2013-09-29 15:51:00,
2013-09-29 11:56:00,83.8,71.7,29.94,ENE,67,4.5,5.8,67,0.00,CLR,,0.12,WeatherDisplay:10.37,2013-09-29 15:56:00,
2013-09-29 12:01:00,84.0,71.9,29.94,East,97,3.8,8.1,67,0.00,CLR,,0.12,WeatherDisplay:10.37,2013-09-29 16:01:00,
2013-09-29 12:06:00,84.2,71.2,29.94,NE,51,4.8,6.9,65,0.00,CLR,,0.12,WeatherDisplay:10.37,2013-09-29 16:06:00,
2013-09-29 12:11:00,84.1,70.6,29.94,NE,46,3.7,4.6,64,0.00,CLR,,0.12,WeatherDisplay:10.37,2013-09-29 16:11:00,
2013-09-29 12:16:00,84.1,72.0,29.94,ENE,67,1.2,2.3,67,0.00,CLR,,0.12,WeatherDisplay:10.37,2013-09-29 16:16:00,
2013-09-29 12:21:00,83.9,71.3,29.94,NNE,28,4.0,8.1,66,0.00,CLR,,0.12,WeatherDisplay:10.37,2013-09-29 16:21:00,
2013-09-29 12:26:00,83.8,70.8,29.94,NE,40,5.6,8.1,65,0.00,CLR,,0.12,WeatherDisplay:10.37,2013-09-29 16:26:00,
2013-09-29 12:31:00,84.2,70.7,29.94,North,355,5.3,9.2,64,0.00,CLR,,0.12,WeatherDisplay:10.37,2013-09-29 16:31:00,
2013-09-29 12:36:00,84.2,70.2,29.94,ENE,63,5.4,8.1,63,0.00,CLR,,0.12,WeatherDisplay:10.37,2013-09-29 16:36:00,
2013-09-29 12:41:00,84.4,71.3,29.93,NE,49,5.6,11.5,65,0.00,CLR,,0.12,WeatherDisplay:10.37,2013-09-29 16:41:00,
2013-09-29 12:46:00,84.3,71.2,29.93,NNE,17,4.2,5.8,65,0.00,CLR,,0.12,WeatherDisplay:10.37,2013-09-29 16:46:00,
2013-09-29 12:51:00,84.3,71.7,29.93,ENE,62,0.1,2.3,66,0.00,CLR,,0.12,WeatherDisplay:10.37,2013-09-29 16:51:00,
2013-09-29 12:56:00,84.5,70.5,29.93,ENE,78,4.7,4.7,63,0.00,CLR,,0.12,WeatherDisplay:10.37,2013-09-29 16:56:00,
2013-09-29 13:01:00,84.6,71.1,29.93,East,98,2.3,3.5,64,0.00,CLR,,0.12,WeatherDisplay:10.37,2013-09-29 17:01:00,
2013-09-29 13:06:00,84.7,72.1,29.93,ENE,66,4.9,6.9,66,0.00,CLR,,0.12,WeatherDisplay:10.37,2013-09-29 17:06:00,
2013-09-29 13:11:00,84.5,70.5,29.92,NE,38,1.4,8.1,63,0.00,CLR,,0.12,WeatherDisplay:10.37,2013-09-29 17:11:00,
2013-09-29 13:16:00,84.3,71.7,29.92,ESE,113,3.0,3.5,66,0.00,CLR,,0.12,WeatherDisplay:10.37,2013-09-29 17:16:00,
2013-09-29 13:21:00,84.5,71.9,29.92,NE,54,1.8,1.8,66,0.00,CLR,,0.12,WeatherDisplay:10.37,2013-09-29 17:21:00,
2013-09-29 13:26:00,84.9,71.4,29.91,NE,51,2.7,10.4,64,0.00,CLR,,0.12,WeatherDisplay:10.37,2013-09-29 17:26:00,
2013-09-29 13:31:00,84.9,70.9,29.91,NE,53,4.0,4.0,63,0.00,CLR,,0.12,WeatherDisplay:10.37,2013-09-29 17:31:00,
2013-09-29 13:36:00,84.8,71.3,29.91,ENE,57,2.4,3.5,64,0.00,CLR,,0.12,WeatherDisplay:10.37,2013-09-29 17:36:00,
2013-09-29 13:42:00,85.1,72.0,29.91,East,101,2.6,3.5,65,0.00,CLR,,0.12,WeatherDisplay:10.37,2013-09-29 17:42:00,
2013-09-29 13:47:00,84.9,70.4,29.91,ESE,106,2.0,3.5,62,0.00,CLR,,0.12,WeatherDisplay:10.37,2013-09-29 17:47:00,
2013-09-29 13:52:00,85.0,72.8,29.91,NE,54,3.4,5.8,67,0.00,CLR,,0.12,WeatherDisplay:10.37,2013-09-29 17:52:00,
2013-09-29 13:57:00,84.5,70.0,29.91,ENE,71,1.2,2.3,62,0.00,CLR,,0.12,WeatherDisplay:10.37,2013-09-29 17:57:00,
2013-09-29 14:02:00,84.3,70.3,29.91,SSE,150,1.4,2.3,63,0.00,CLR,,0.12,WeatherDisplay:10.37,2013-09-29 18:02:00,
2013-09-29 14:07:00,84.7,70.7,29.91,ENE,63,2.9,6.9,63,0.00,CLR,,0.12,WeatherDisplay:10.37,2013-09-29 18:07:00,
2013-09-29 14:12:00,85.1,71.5,29.90,East,90,0.8,10.4,64,0.00,CLR,,0.12,WeatherDisplay:10.37,2013-09-29 18:12:00,
2013-09-29 14:17:00,84.7,69.8,29.90,East,79,5.0,5.8,61,0.00,CLR,,0.12,WeatherDisplay:10.37,2013-09-29 18:17:00,
2013-09-29 14:22:00,84.8,71.3,29.90,NE,34,5.1,10.4,64,0.00,CLR,,0.12,WeatherDisplay:10.37,2013-09-29 18:22:00,
2013-09-29 14:27:00,84.9,70.9,29.90,NE,40,3.6,3.6,63,0.00,CLR,,0.12,WeatherDisplay:10.37,2013-09-29 18:27:00,
2013-09-29 14:32:00,85.0,70.5,29.89,ENE,61,3.8,9.2,62,0.00,CLR,,0.12,WeatherDisplay:10.37,2013-09-29 18:32:00,
2013-09-29 14:37:00,85.2,71.2,29.89,ENE,73,3.2,5.0,63,0.00,CLR,,0.12,WeatherDisplay:10.37,2013-09-29 18:37:00,
2013-09-29 14:42:00,85.2,71.2,29.89,ENE,57,4.9,10.4,63,0.00,CLR,,0.12,WeatherDisplay:10.37,2013-09-29 18:42:00,
2013-09-29 14:47:00,85.3,71.7,29.89,ESE,119,6.1,10.4,64,0.00,CLR,,0.12,WeatherDisplay:10.37,2013-09-29 18:47:00,
2013-09-29 14:52:00,85.3,70.3,29.89,NNE,32,4.4,7.0,61,0.00,CLR,,0.12,WeatherDisplay:10.37,2013-09-29 18:52:00,
2013-09-29 14:57:00,85.0,69.6,29.88,East,96,7.8,10.4,60,0.00,CLR,,0.12,WeatherDisplay:10.37,2013-09-29 18:57:00,
2013-09-29 15:02:00,85.1,69.7,29.88,ESE,121,4.9,8.1,60,0.00,CLR,,0.12,WeatherDisplay:10.37,2013-09-29 19:02:00,
2013-09-29 15:07:00,85.3,70.3,29.88,ENE,60,4.7,4.7,61,0.00,CLR,,0.12,WeatherDisplay:10.37,2013-09-29 19:07:00,
2013-09-29 15:12:00,85.3,69.3,29.88,NE,40,3.4,8.1,59,0.00,CLR,,0.12,WeatherDisplay:10.37,2013-09-29 19:12:00,
2013-09-29 15:17:00,85.3,70.3,29.88,East,80,3.6,9.2,61,0.00,CLR,,0.12,WeatherDisplay:10.37,2013-09-29 19:17:00,
2013-09-29 15:22:00,85.2,69.7,29.88,NE,55,4.1,9.2,60,0.00,CLR,,0.12,WeatherDisplay:10.37,2013-09-29 19:22:00,
2013-09-29 15:28:00,85.0,70.5,29.87,NNE,27,4.3,5.8,62,0.00,CLR,,0.12,WeatherDisplay:10.37,2013-09-29 19:28:00,
2013-09-29 15:33:00,85.3,70.8,29.87,ESE,106,5.5,8.1,62,0.00,CLR,,0.12,WeatherDisplay:10.37,2013-09-29 19:33:00,
2013-09-29 15:38:00,85.2,70.7,29.87,ENE,74,2.0,6.9,62,0.00,CLR,,0.12,WeatherDisplay:10.37,2013-09-29 19:38:00,
2013-09-29 15:43:00,85.4,71.4,29.87,East,96,6.7,11.5,63,0.00,CLR,,0.12,WeatherDisplay:10.37,2013-09-29 19:43:00,
2013-09-29 15:48:00,85.3,70.8,29.87,East,80,4.8,6.9,62,0.00,CLR,,0.12,WeatherDisplay:10.37,2013-09-29 19:48:00,
2013-09-29 15:53:00,85.1,70.6,29.87,East,84,5.0,8.1,62,0.00,CLR,,0.12,WeatherDisplay:10.37,2013-09-29 19:53:00,
2013-09-29 15:58:00,85.1,70.6,29.87,NE,38,8.1,11.5,62,0.00,CLR,,0.12,WeatherDisplay:10.37,2013-09-29 19:58:00,
2013-09-29 16:03:00,84.8,70.3,29.87,NE,54,5.8,8.1,62,0.00,CLR,,0.12,WeatherDisplay:10.37,2013-09-29 20:03:00,
2013-09-29 16:08:00,84.8,71.3,29.87,NE,46,7.0,8.1,64,0.00,CLR,,0.12,WeatherDisplay:10.37,2013-09-29 20:08:00,
2013-09-29 16:13:00,84.6,70.6,29.86,ENE,58,3.8,6.9,63,0.00,CLR,,0.12,WeatherDisplay:10.37,2013-09-29 20:13:00,
2013-09-29 16:18:00,84.6,70.6,29.87,NE,45,4.0,6.9,63,0.00,CLR,,0.12,WeatherDisplay:10.37,2013-09-29 20:18:00,
2013-09-29 16:23:00,84.6,72.4,29.87,East,83,5.5,8.1,67,0.00,CLR,,0.12,WeatherDisplay:10.37,2013-09-29 20:23:00,
2013-09-29 16:28:00,84.5,71.4,29.86,East,79,4.9,6.9,65,0.00,CLR,,0.12,WeatherDisplay:10.37,2013-09-29 20:28:00,
2013-09-29 16:33:00,84.3,70.3,29.87,ENE,76,4.0,6.9,63,0.00,CLR,,0.12,WeatherDisplay:10.37,2013-09-29 20:33:00,
2013-09-29 16:38:00,84.3,71.7,29.87,ESE,113,5.3,9.2,66,0.00,CLR,,0.12,WeatherDisplay:10.37,2013-09-29 20:38:00,
2013-09-29 16:43:00,84.3,72.1,29.87,East,82,5.2,10.4,67,0.00,CLR,,0.12,WeatherDisplay:10.37,2013-09-29 20:43:00,
2013-09-29 16:48:00,84.3,71.2,29.87,East,90,6.0,10.4,65,0.00,CLR,,0.12,WeatherDisplay:10.37,2013-09-29 20:48:00,
2013-09-29 16:53:00,84.1,71.5,29.87,ENE,65,5.8,8.1,66,0.00,CLR,,0.12,WeatherDisplay:10.37,2013-09-29 20:53:00,
2013-09-29 16:58:00,84.0,71.4,29.87,SE,126,4.3,10.4,66,0.00,CLR,,0.12,WeatherDisplay:10.37,2013-09-29 20:58:00,
2013-09-29 17:03:00,84.0,72.3,29.88,NE,36,2.2,4.6,68,0.00,CLR,,0.12,WeatherDisplay:10.37,2013-09-29 21:03:00,
2013-09-29 17:08:00,84.0,72.3,29.88,SSE,167,1.5,5.0,68,0.00,CLR,,0.12,WeatherDisplay:10.37,2013-09-29 21:08:00,
2013-09-29 17:13:00,83.9,71.3,29.88,East,82,6.6,8.1,66,0.00,CLR,,0.12,WeatherDisplay:10.37,2013-09-29 21:13:00,
2013-09-29 17:18:00,83.7,72.4,29.88,East,79,5.7,8.1,69,0.00,CLR,,0.12,WeatherDisplay:10.37,2013-09-29 21:18:00,
2013-09-29 17:23:00,83.6,71.9,29.88,ENE,66,2.4,4.6,68,0.00,CLR,,0.12,WeatherDisplay:10.37,2013-09-29 21:23:00,
2013-09-29 17:28:00,83.7,72.4,29.88,ENE,75,4.2,8.1,69,0.00,CLR,,0.12,WeatherDisplay:10.37,2013-09-29 21:28:00,
2013-09-29 17:33:00,83.6,71.9,29.88,ESE,105,5.8,8.1,68,0.00,CLR,,0.12,WeatherDisplay:10.37,2013-09-29 21:33:00,
2013-09-29 17:38:00,83.3,72.1,29.88,East,92,5.5,6.9,69,0.00,CLR,,0.12,WeatherDisplay:10.37,2013-09-29 21:38:00,
2013-09-29 17:43:00,83.2,72.0,29.88,NE,44,3.2,6.9,69,0.00,CLR,,0.12,WeatherDisplay:10.37,2013-09-29 21:43:00,
2013-09-29 17:48:00,83.2,72.4,29.88,ESE,113,5.9,11.5,70,0.00,CLR,,0.12,WeatherDisplay:10.37,2013-09-29 21:48:00,
2013-09-29 17:53:00,83.0,72.2,29.88,ESE,103,3.0,3.5,70,0.00,CLR,,0.12,WeatherDisplay:10.37,2013-09-29 21:53:00,
2013-09-29 17:58:00,82.9,72.5,29.88,ESE,114,6.0,6.9,71,0.00,CLR,,0.12,WeatherDisplay:10.37,2013-09-29 21:58:00,
2013-09-29 18:03:00,82.8,72.4,29.88,ENE,61,0.9,3.5,71,0.00,CLR,,0.12,WeatherDisplay:10.37,2013-09-29 22:03:00,
2013-09-29 18:08:00,82.8,72.0,29.89,ESE,113,5.0,8.0,70,0.00,CLR,,0.12,WeatherDisplay:10.37,2013-09-29 22:08:00,
2013-09-29 18:13:00,82.5,71.3,29.89,East,98,4.3,6.0,69,0.00,CLR,,0.12,WeatherDisplay:10.37,2013-09-29 22:13:00,
2013-09-29 18:18:00,82.4,72.0,29.89,ENE,59,4.3,9.2,71,0.00,CLR,,0.12,WeatherDisplay:10.37,2013-09-29 22:18:00,
2013-09-29 18:23:00,82.2,72.3,29.89,ENE,60,2.0,9.2,72,0.00,CLR,,0.12,WeatherDisplay:10.37,2013-09-29 22:23:00,
2013-09-29 18:28:00,82.3,72.4,29.89,NE,36,6.0,9.2,72,0.00,CLR,,0.12,WeatherDisplay:10.37,2013-09-29 22:28:00,
2013-09-29 18:33:00,82.3,72.8,29.89,East,86,2.8,6.0,73,0.00,CLR,,0.12,WeatherDisplay:10.37,2013-09-29 22:33:00,
2013-09-29 18:38:00,82.1,72.6,29.89,ENE,78,3.0,4.6,73,0.00,CLR,,0.12,WeatherDisplay:10.37,2013-09-29 22:38:00,
2013-09-29 18:43:00,81.8,72.3,29.89,NE,51,4.5,5.8,73,0.00,CLR,,0.12,WeatherDisplay:10.37,2013-09-29 22:43:00,
2013-09-29 18:48:00,81.7,72.2,29.89,East,81,3.1,6.9,73,0.00,CLR,,0.12,WeatherDisplay:10.37,2013-09-29 22:48:00,
2013-09-29 18:53:00,81.6,72.5,29.90,East,79,2.6,3.5,74,0.00,CLR,,0.12,WeatherDisplay:10.37,2013-09-29 22:53:00,
2013-09-29 18:58:00,81.4,72.3,29.90,NE,52,4.9,6.9,74,0.00,CLR,,0.12,WeatherDisplay:10.37,2013-09-29 22:58:00,
2013-09-29 19:03:00,81.3,72.6,29.90,ESE,106,5.1,6.9,75,0.00,CLR,,0.12,WeatherDisplay:10.37,2013-09-29 23:03:00,
2013-09-29 19:08:00,81.2,72.9,29.90,ENE,71,5.0,9.2,76,0.00,CLR,,0.12,WeatherDisplay:10.37,2013-09-29 23:08:00,
2013-09-29 19:13:00,81.0,72.7,29.90,NE,53,1.9,2.3,76,0.00,CLR,,0.12,WeatherDisplay:10.37,2013-09-29 23:13:00,
2013-09-29 19:18:00,80.9,72.6,29.90,East,86,6.6,8.1,76,0.00,CLR,,0.12,WeatherDisplay:10.37,2013-09-29 23:18:00,
2013-09-29 19:23:00,80.9,72.6,29.90,East,79,0.0,4.6,76,0.00,CLR,,0.12,WeatherDisplay:10.37,2013-09-29 23:23:00,
2013-09-29 19:28:00,80.8,72.1,29.91,ENE,73,2.6,6.9,75,0.00,CLR,,0.12,WeatherDisplay:10.37,2013-09-29 23:28:00,
2013-09-29 19:33:00,80.7,72.4,29.91,East,98,4.0,6.9,76,0.00,CLR,,0.12,WeatherDisplay:10.37,2013-09-29 23:33:00,
2013-09-29 19:39:00,80.7,72.4,29.91,ENE,76,1.9,6.9,76,0.00,CLR,,0.12,WeatherDisplay:10.37,2013-09-29 23:39:00,
2013-09-29 19:44:00,80.6,72.7,29.91,ENE,78,1.1,2.3,77,0.00,CLR,,0.12,WeatherDisplay:10.37,2013-09-29 23:44:00,
2013-09-29 19:49:00,80.5,72.6,29.91,NE,41,0.9,3.5,77,0.00,CLR,,0.12,WeatherDisplay:10.37,2013-09-29 23:49:00,
2013-09-29 19:54:00,80.5,72.6,29.91,NE,41,0.5,1.2,77,0.00,CLR,,0.12,WeatherDisplay:10.37,2013-09-29 23:54:00,
2013-09-29 19:59:00,80.4,72.1,29.92,NE,46,1.1,3.5,76,0.00,CLR,,0.12,WeatherDisplay:10.37,2013-09-29 23:59:00,
2013-09-29 20:04:00,80.4,72.1,29.92,ENE,59,3.8,5.8,76,0.00,CLR,,0.12,WeatherDisplay:10.37,2013-09-30 00:04:00,
2013-09-29 20:09:00,80.4,72.5,29.92,ENE,63,2.2,3.5,77,0.00,CLR,,0.12,WeatherDisplay:10.37,2013-09-30 00:09:00,
2013-09-29 20:14:00,80.3,72.0,29.92,East,84,1.6,3.5,76,0.00,CLR,,0.12,WeatherDisplay:10.37,2013-09-30 00:14:00,
2013-09-29 20:19:00,80.2,71.9,29.92,East,86,0.6,2.3,76,0.00,CLR,,0.12,WeatherDisplay:10.37,2013-09-30 00:19:00,
2013-09-29 20:24:00,80.2,72.3,29.92,East,86,1.9,3.5,77,0.00,CLR,,0.12,WeatherDisplay:10.37,2013-09-30 00:24:00,
2013-09-29 20:29:00,80.1,71.8,29.92,East,94,1.8,5.8,76,0.00,CLR,,0.12,WeatherDisplay:10.37,2013-09-30 00:29:00,
2013-09-29 20:34:00,80.1,72.2,29.92,East,94,0.8,2.3,77,0.00,CLR,,0.12,WeatherDisplay:10.37,2013-09-30 00:34:00,
2013-09-29 20:39:00,80.0,72.1,29.92,East,94,0.1,1.2,77,0.00,CLR,,0.12,WeatherDisplay:10.37,2013-09-30 00:39:00,
2013-09-29 20:44:00,79.9,72.0,29.92,East,94,0.0,2.3,77,0.00,CLR,,0.12,WeatherDisplay:10.37,2013-09-30 00:44:00,
2013-09-29 20:49:00,79.9,72.8,29.92,East,94,0.3,1.2,79,0.00,CLR,,0.12,WeatherDisplay:10.37,2013-09-30 00:49:00,
2013-09-29 20:54:00,79.7,71.8,29.92,East,94,1.2,2.3,77,0.00,CLR,,0.12,WeatherDisplay:10.37,2013-09-30 00:54:00,
2013-09-29 20:59:00,79.6,72.5,29.92,East,94,1.6,2.3,79,0.00,CLR,,0.12,WeatherDisplay:10.37,2013-09-30 00:59:00,
2013-09-29 21:04:00,79.4,71.9,29.92,East,94,0.2,1.2,78,0.00,CLR,,0.12,WeatherDisplay:10.37,2013-09-30 01:04:00,
2013-09-29 21:09:00,79.4,71.9,29.93,East,94,1.3,4.6,78,0.00,CLR,,0.12,WeatherDisplay:10.37,2013-09-30 01:09:00,
2013-09-29 21:14:00,79.4,71.9,29.93,East,94,0.3,4.6,78,0.00,CLR,,0.12,WeatherDisplay:10.37,2013-09-30 01:14:00,
2013-09-29 21:19:00,79.4,71.9,29.93,ENE,61,3.2,3.2,78,0.00,CLR,,0.12,WeatherDisplay:10.37,2013-09-30 01:19:00,
2013-09-29 21:24:00,79.5,71.7,29.93,ENE,61,2.6,3.5,77,0.00,CLR,,0.12,WeatherDisplay:10.37,2013-09-30 01:24:00,
2013-09-29 21:29:00,79.6,71.8,29.93,NE,55,0.9,2.3,77,0.00,CLR,,0.12,WeatherDisplay:10.37,2013-09-30 01:29:00,
2013-09-29 21:34:00,79.6,71.4,29.93,NE,51,2.3,2.3,76,0.00,CLR,,0.12,WeatherDisplay:10.37,2013-09-30 01:34:00,
2013-09-29 21:39:00,79.7,72.2,29.93,NE,51,0.6,1.2,78,0.00,CLR,,0.12,WeatherDisplay:10.37,2013-09-30 01:39:00,
2013-09-29 21:44:00,79.6,72.1,29.94,NE,51,0.0,0.0,78,0.00,CLR,,0.12,WeatherDisplay:10.37,2013-09-30 01:44:00,
2013-09-29 21:49:00,79.5,72.4,29.94,NE,51,0.3,1.2,79,0.00,CLR,,0.12,WeatherDisplay:10.37,2013-09-30 01:49:00,
2013-09-29 21:54:00,79.2,72.1,29.94,NE,51,0.0,0.0,79,0.00,CLR,,0.12,WeatherDisplay:10.37,2013-09-30 01:54:00,
2013-09-29 21:59:00,79.1,72.8,29.95,NE,51,0.0,0.0,81,0.00,CLR,,0.12,WeatherDisplay:10.37,2013-09-30 01:59:00,
2013-09-29 22:04:00,78.8,72.5,29.95,NE,51,0.0,1.2,81,0.00,CLR,,0.12,WeatherDisplay:10.37,2013-09-30 02:04:00,
2013-09-29 22:09:00,78.5,72.9,29.95,NE,51,0.0,0.0,83,0.00,CLR,,0.12,WeatherDisplay:10.37,2013-09-30 02:09:00,
2013-09-29 22:14:00,78.2,72.3,29.95,NE,51,0.0,1.2,82,0.00,CLR,,0.12,WeatherDisplay:10.37,2013-09-30 02:14:00,
2013-09-29 22:19:00,78.0,72.8,29.95,NE,51,0.3,1.2,84,0.00,CLR,,0.12,WeatherDisplay:10.37,2013-09-30 02:19:00,
2013-09-29 22:25:00,77.8,72.2,29.95,NE,51,0.0,0.0,83,0.00,CLR,,0.12,WeatherDisplay:10.37,2013-09-30 02:25:00,
2013-09-29 22:30:00,77.6,72.0,29.95,NE,51,0.1,1.2,83,0.00,CLR,,0.12,WeatherDisplay:10.37,2013-09-30 02:30:00,
2013-09-29 22:35:00,77.9,73.0,29.95,NE,51,0.0,0.0,85,0.00,CLR,,0.12,WeatherDisplay:10.37,2013-09-30 02:35:00,
2013-09-29 22:40:00,77.8,72.9,29.95,NE,51,0.0,0.0,85,0.00,CLR,,0.12,WeatherDisplay:10.37,2013-09-30 02:40:00,
2013-09-29 22:45:00,77.6,72.7,29.95,NE,51,0.0,0.0,85,0.00,CLR,,0.12,WeatherDisplay:10.37,2013-09-30 02:45:00,
2013-09-29 22:50:00,77.4,72.5,29.95,NE,51,0.0,0.0,85,0.00,CLR,,0.12,WeatherDisplay:10.37,2013-09-30 02:50:00,
2013-09-29 22:55:00,77.2,72.3,29.95,NE,51,0.0,0.0,85,0.00,CLR,,0.12,WeatherDisplay:10.37,2013-09-30 02:55:00,
2013-09-29 23:00:00,77.1,72.9,29.95,NE,51,0.0,0.0,87,0.00,CLR,,0.12,WeatherDisplay:10.37,2013-09-30 03:00:00,
2013-09-29 23:05:00,76.9,72.7,29.95,NE,51,0.0,0.0,87,0.00,CLR,,0.12,WeatherDisplay:10.37,2013-09-30 03:05:00,
2013-09-29 23:10:00,76.7,72.5,29.95,NE,51,0.0,0.0,87,0.00,CLR,,0.12,WeatherDisplay:10.37,2013-09-30 03:10:00,
2013-09-29 23:15:00,76.5,72.3,29.95,NE,51,0.0,0.0,87,0.00,CLR,,0.12,WeatherDisplay:10.37,2013-09-30 03:15:00,
2013-09-29 23:20:00,76.3,72.5,29.95,NE,51,0.0,0.0,88,0.00,CLR,,0.12,WeatherDisplay:10.37,2013-09-30 03:20:00,
2013-09-29 23:25:00,76.2,72.4,29.95,NE,51,0.0,0.0,88,0.00,CLR,,0.12,WeatherDisplay:10.37,2013-09-30 03:25:00,
2013-09-29 23:30:00,76.0,72.5,29.95,NE,51,0.0,0.0,89,0.00,CLR,,0.12,WeatherDisplay:10.37,2013-09-30 03:30:00,
2013-09-29 23:35:00,75.8,72.0,29.95,NE,51,0.0,0.0,88,0.00,CLR,,0.12,WeatherDisplay:10.37,2013-09-30 03:35:00,
2013-09-29 23:40:00,75.8,72.3,29.95,NE,51,0.0,0.0,89,0.00,CLR,,0.12,WeatherDisplay:10.37,2013-09-30 03:40:00,
2013-09-29 23:45:00,75.7,72.6,29.95,NE,51,0.0,0.0,90,0.00,CLR,,0.12,WeatherDisplay:10.37,2013-09-30 03:45:00,
2013-09-29 23:50:00,75.5,72.4,29.95,NE,51,0.0,0.0,90,0.00,CLR,,0.12,WeatherDisplay:10.37,2013-09-30 03:50:00,
2013-09-29 23:55:00,75.3,72.2,29.95,NE,51,0.0,0.0,90,0.00,CLR,,0.12,WeatherDisplay:10.37,2013-09-30 03:55:00,